Fort McPherson, Georgia
Current Conditions -  °F | °C
As of 9:28 PM on Saturday 22 Nov 2014 (Local Time) from KATL Reporting Station
Overcast Overcast  
Wind Chill: 55°   Ceiling: 2700
Heat Index: 55°   Visibility: 10mi
Dew Point: 28°   Wind: 9mph
Humidity: 36%   Direction: 100°E
Pressure: 30.25"   Gusts: NA
Location:  33.7264°N, 84.4263°W
Report Text: KATL 230228Z 10008KT 10SM BKN027 OVC110 13/M02 A3025 RMK AO2 $
Loading
Personal Weather Stations






























Interactive Weather Map New forecast layout! Learn more

10-Day Weather Forecast

Advertisements
Track Severe Weather on mobile